createdAt,value
2017-06-25T00:01:19.712Z,18.90
2017-06-25T00:03:47.984Z,18.90
2017-06-25T00:06:16.313Z,18.90
2017-06-25T00:08:44.592Z,18.90
2017-06-25T00:11:12.899Z,18.80
2017-06-25T00:13:41.173Z,18.80
2017-06-25T00:16:09.484Z,18.80
2017-06-25T00:18:37.807Z,18.90
2017-06-25T00:21:06.105Z,19.00
2017-06-25T00:23:34.380Z,19.00
2017-06-25T00:26:02.656Z,18.90
2017-06-25T00:28:30.952Z,18.90
2017-06-25T00:30:58.458Z,18.90
2017-06-25T00:33:26.765Z,18.90
2017-06-25T00:35:55.120Z,18.90
2017-06-25T00:38:23.423Z,19.00
2017-06-25T00:40:51.697Z,18.90
2017-06-25T00:43:19.997Z,18.90
2017-06-25T00:45:48.289Z,19.00
2017-06-25T00:48:16.597Z,18.90
2017-06-25T00:50:44.878Z,18.90
2017-06-25T00:53:18.909Z,18.90
2017-06-25T00:55:46.462Z,18.90
2017-06-25T00:58:14.753Z,18.80
2017-06-25T01:00:43.086Z,18.60
2017-06-25T01:03:11.363Z,18.50
2017-06-25T01:05:39.653Z,18.60
2017-06-25T01:08:07.965Z,18.40
2017-06-25T01:10:35.480Z,18.40
2017-06-25T01:13:03.776Z,18.30
2017-06-25T01:15:32.068Z,18.30
2017-06-25T01:18:00.348Z,18.40
2017-06-25T01:20:28.661Z,18.40
2017-06-25T01:22:56.937Z,18.50
2017-06-25T01:25:25.230Z,18.50
2017-06-25T01:27:53.503Z,18.50
2017-06-25T01:30:21.816Z,18.40
2017-06-25T01:32:50.097Z,18.40
2017-06-25T01:35:18.409Z,18.50
2017-06-25T01:37:47.027Z,18.60
2017-06-25T01:40:15.296Z,18.50
2017-06-25T01:42:43.574Z,18.40
2017-06-25T01:45:11.879Z,18.40
2017-06-25T01:47:40.142Z,18.30
2017-06-25T01:50:08.403Z,18.40
2017-06-25T01:52:36.699Z,18.40
2017-06-25T01:55:04.988Z,18.30
2017-06-25T01:57:33.258Z,18.30
2017-06-25T02:00:01.576Z,18.30
2017-06-25T02:02:29.846Z,18.30
2017-06-25T02:04:58.125Z,18.30
2017-06-25T02:07:26.445Z,18.30
2017-06-25T02:09:54.707Z,18.30
2017-06-25T02:12:22.978Z,18.20
2017-06-25T02:14:51.288Z,18.30
2017-06-25T02:17:19.550Z,18.20
2017-06-25T02:19:47.865Z,18.20
2017-06-25T02:22:16.133Z,18.20
2017-06-25T02:24:44.410Z,18.20
2017-06-25T02:27:12.712Z,18.30
2017-06-25T02:29:40.978Z,18.30
2017-06-25T02:32:10.217Z,18.20
2017-06-25T02:34:38.481Z,18.20
2017-06-25T02:37:06.767Z,18.30
2017-06-25T02:39:35.083Z,18.20
2017-06-25T02:42:03.345Z,18.10
2017-06-25T02:44:31.605Z,18.10
2017-06-25T02:46:59.888Z,18.00
2017-06-25T02:49:28.156Z,18.10
2017-06-25T02:51:56.454Z,18.20
2017-06-25T02:54:24.718Z,18.20
2017-06-25T02:56:52.975Z,18.20
2017-06-25T02:59:21.268Z,18.30
2017-06-25T03:01:49.541Z,18.30
2017-06-25T03:04:17.805Z,18.20
2017-06-25T03:06:46.096Z,18.20
2017-06-25T03:09:22.107Z,18.10
2017-06-25T03:11:50.423Z,18.10
2017-06-25T03:14:18.690Z,18.10
2017-06-25T03:16:46.960Z,18.10
2017-06-25T03:19:15.282Z,18.10
2017-06-25T03:21:43.552Z,18.10
2017-06-25T03:24:11.811Z,18.10
2017-06-25T03:26:40.140Z,18.00
2017-06-25T03:29:08.419Z,18.00
2017-06-25T03:31:36.679Z,18.10
2017-06-25T03:34:04.996Z,18.00
2017-06-25T03:36:33.261Z,18.00
2017-06-25T03:39:02.448Z,18.10
2017-06-25T03:41:30.752Z,18.00
2017-06-25T03:43:59.020Z,18.10
2017-06-25T03:46:27.283Z,18.10
2017-06-25T03:48:55.597Z,18.10
2017-06-25T03:51:23.877Z,18.10
2017-06-25T03:53:52.134Z,18.00
2017-06-25T03:56:20.443Z,18.00
2017-06-25T03:58:48.707Z,18.00
2017-06-25T04:01:16.968Z,18.00
2017-06-25T04:03:45.275Z,17.90
2017-06-25T04:06:13.539Z,17.90
2017-06-25T04:08:41.804Z,17.90
2017-06-25T04:11:10.100Z,17.90
2017-06-25T04:13:38.366Z,17.90
2017-06-25T04:16:06.626Z,18.00
2017-06-25T04:18:34.938Z,18.00
2017-06-25T04:21:02.444Z,18.00
2017-06-25T04:23:30.816Z,18.00
2017-06-25T04:25:59.441Z,17.90
2017-06-25T04:28:28.682Z,17.90
2017-06-25T04:30:56.949Z,18.00
2017-06-25T04:33:25.275Z,17.90
2017-06-25T04:35:53.540Z,17.90
2017-06-25T04:38:21.800Z,17.90
2017-06-25T04:40:50.099Z,18.00
2017-06-25T04:43:18.417Z,18.00
2017-06-25T04:45:46.697Z,18.00
2017-06-25T04:48:14.969Z,18.00
2017-06-25T04:50:43.281Z,18.10
2017-06-25T04:53:11.580Z,18.00
2017-06-25T04:55:39.842Z,18.00
2017-06-25T04:58:09.072Z,18.10
2017-06-25T05:00:37.333Z,18.10
2017-06-25T05:03:05.596Z,18.10
2017-06-25T05:05:33.897Z,18.10
2017-06-25T05:08:02.156Z,18.20
2017-06-25T05:10:30.412Z,18.20
2017-06-25T05:12:58.684Z,18.20
2017-06-25T05:15:26.968Z,18.20
2017-06-25T05:17:56.209Z,18.30
2017-06-25T05:20:24.469Z,18.30
2017-06-25T05:22:52.729Z,18.30
2017-06-25T05:25:21.026Z,18.30
2017-06-25T05:27:48.513Z,18.30
2017-06-25T05:30:16.764Z,18.30
2017-06-25T05:32:45.063Z,18.30
2017-06-25T05:35:13.325Z,18.30
2017-06-25T05:37:41.590Z,18.30
2017-06-25T05:40:09.885Z,18.30
2017-06-25T05:42:38.144Z,18.40
2017-06-25T05:45:06.407Z,18.40
2017-06-25T05:47:34.691Z,18.40
2017-06-25T05:50:02.968Z,18.40
2017-06-25T05:52:31.233Z,18.50
2017-06-25T05:54:59.518Z,18.50
2017-06-25T05:57:27.778Z,18.40
2017-06-25T05:59:56.996Z,18.50
2017-06-25T06:02:25.262Z,18.50
2017-06-25T06:04:52.779Z,18.40
2017-06-25T06:07:21.064Z,18.50
2017-06-25T06:09:49.315Z,18.50
2017-06-25T06:12:17.607Z,18.50
2017-06-25T06:14:45.866Z,18.50
2017-06-25T06:17:14.159Z,18.50
2017-06-25T06:19:42.416Z,18.50
2017-06-25T06:22:10.672Z,18.50
2017-06-25T06:24:38.957Z,18.50
2017-06-25T06:27:07.357Z,18.50
2017-06-25T06:29:35.614Z,18.50
2017-06-25T06:32:03.871Z,18.50
2017-06-25T06:34:32.161Z,18.50
2017-06-25T06:37:00.416Z,18.60
2017-06-25T06:39:28.706Z,18.60
2017-06-25T06:41:56.970Z,18.50
2017-06-25T06:44:24.467Z,18.50
2017-06-25T06:46:52.760Z,18.50
2017-06-25T06:49:21.068Z,18.50
2017-06-25T06:51:49.320Z,18.60
2017-06-25T06:54:17.819Z,18.60
2017-06-25T06:56:46.124Z,18.70
2017-06-25T06:59:14.394Z,18.70
2017-06-25T07:01:42.685Z,18.80
2017-06-25T07:04:10.942Z,18.90
2017-06-25T07:06:39.200Z,18.80
2017-06-25T07:09:07.480Z,18.90
2017-06-25T07:11:35.771Z,18.90
2017-06-25T07:14:04.059Z,19.10
2017-06-25T07:16:32.326Z,19.10
2017-06-25T07:19:00.615Z,19.10
2017-06-25T07:21:28.902Z,19.20
2017-06-25T07:23:57.180Z,19.20
2017-06-25T07:26:25.488Z,19.30
2017-06-25T07:28:53.826Z,19.50
2017-06-25T07:31:22.128Z,19.40
2017-06-25T07:33:50.396Z,19.40
2017-06-25T07:36:18.682Z,19.40
2017-06-25T07:38:46.952Z,19.50
2017-06-25T07:41:15.243Z,19.50
2017-06-25T07:43:42.777Z,19.50
2017-06-25T07:46:11.040Z,19.40
2017-06-25T07:48:39.311Z,19.50
2017-06-25T07:51:07.632Z,19.80
2017-06-25T07:53:35.897Z,19.80
2017-06-25T07:56:04.166Z,19.80
2017-06-25T07:58:32.457Z,19.80
2017-06-25T08:01:00.752Z,19.90
2017-06-25T08:03:29.021Z,19.80
2017-06-25T08:05:57.295Z,19.80
2017-06-25T08:08:25.591Z,19.80
2017-06-25T08:10:53.851Z,19.90
2017-06-25T08:13:22.132Z,19.90
2017-06-25T08:15:50.405Z,20.00
2017-06-25T08:18:18.688Z,20.20
2017-06-25T08:20:46.944Z,20.40
2017-06-25T08:23:15.247Z,20.60
2017-06-25T08:25:43.513Z,20.40
2017-06-25T08:28:11.783Z,20.40
2017-06-25T08:30:40.086Z,20.50
2017-06-25T08:33:08.347Z,20.60
2017-06-25T08:35:36.624Z,20.60
2017-06-25T08:38:04.908Z,20.60
2017-06-25T08:40:33.174Z,20.30
2017-06-25T08:43:01.465Z,20.30
2017-06-25T08:45:29.764Z,20.30
2017-06-25T08:47:58.036Z,20.00
2017-06-25T08:50:26.307Z,19.90
2017-06-25T08:52:54.618Z,19.60
2017-06-25T08:55:22.875Z,19.50
2017-06-25T08:57:51.135Z,19.40
2017-06-25T09:00:20.373Z,19.20
2017-06-25T09:02:48.634Z,19.20
2017-06-25T09:05:16.132Z,19.20
2017-06-25T09:07:44.417Z,19.00
2017-06-25T09:10:12.704Z,19.10
2017-06-25T09:12:40.970Z,19.20
2017-06-25T09:15:09.261Z,19.30
2017-06-25T09:17:37.546Z,19.40
2017-06-25T09:20:05.856Z,19.50
2017-06-25T09:22:34.126Z,19.60
2017-06-25T09:25:02.437Z,19.90
2017-06-25T09:27:30.696Z,20.20
2017-06-25T09:29:59.979Z,20.40
2017-06-25T09:32:28.236Z,20.60
2017-06-25T09:34:56.524Z,20.90
2017-06-25T09:37:24.791Z,21.10
2017-06-25T09:39:53.087Z,21.10
2017-06-25T09:42:21.371Z,21.10
2017-06-25T09:44:49.632Z,21.10
2017-06-25T09:47:17.148Z,21.10
2017-06-25T09:49:45.411Z,21.30
2017-06-25T09:52:13.706Z,21.40
2017-06-25T09:54:41.978Z,21.70
2017-06-25T09:57:09.489Z,21.60
2017-06-25T09:59:37.782Z,21.90
2017-06-25T10:02:06.044Z,21.70
2017-06-25T10:04:34.328Z,21.40
2017-06-25T10:07:02.595Z,21.40
2017-06-25T10:09:30.883Z,21.20
2017-06-25T10:11:59.147Z,20.90
2017-06-25T10:14:27.443Z,20.70
2017-06-25T10:16:55.715Z,20.60
2017-06-25T10:19:23.211Z,20.50
2017-06-25T10:21:51.517Z,20.40
2017-06-25T10:24:19.793Z,20.40
2017-06-25T10:26:48.060Z,20.50
2017-06-25T10:29:16.361Z,20.40
2017-06-25T10:31:44.661Z,20.20
2017-06-25T10:34:12.930Z,20.10
2017-06-25T10:36:41.203Z,19.90
2017-06-25T10:39:09.523Z,19.90
2017-06-25T10:41:37.812Z,19.80
2017-06-25T10:44:05.321Z,19.80
2017-06-25T10:46:33.612Z,19.90
2017-06-25T10:49:01.904Z,20.00
2017-06-25T10:51:30.180Z,20.20
2017-06-25T10:53:58.483Z,20.30
2017-06-25T10:56:26.752Z,20.40
2017-06-25T10:58:55.019Z,20.60
2017-06-25T11:01:23.329Z,20.50
2017-06-25T11:03:51.625Z,20.50
2017-06-25T11:06:19.912Z,20.50
2017-06-25T11:08:48.223Z,20.40
2017-06-25T11:11:16.517Z,20.40
2017-06-25T11:13:44.032Z,20.30
2017-06-25T11:16:12.343Z,20.30
2017-06-25T11:18:40.607Z,20.40
2017-06-25T11:21:08.895Z,20.40
2017-06-25T11:23:37.191Z,20.50
2017-06-25T11:26:05.492Z,20.50
2017-06-25T11:28:33.812Z,20.70
2017-06-25T11:31:02.107Z,20.90
2017-06-25T11:33:30.419Z,21.00
2017-06-25T11:35:58.718Z,21.10
2017-06-25T11:38:26.989Z,20.90
2017-06-25T11:40:55.291Z,20.80
2017-06-25T11:43:23.614Z,20.60
2017-06-25T11:45:51.930Z,20.50
2017-06-25T11:48:20.212Z,20.20
2017-06-25T11:50:48.487Z,20.10
2017-06-25T11:53:16.820Z,20.00
2017-06-25T11:55:45.093Z,20.10
2017-06-25T11:58:13.364Z,20.10
2017-06-25T12:00:41.659Z,20.10
2017-06-25T12:03:10.005Z,20.00
2017-06-25T12:05:38.315Z,20.00
2017-06-25T12:08:06.592Z,20.00
2017-06-25T12:10:34.108Z,20.00
2017-06-25T12:13:02.411Z,19.90
2017-06-25T12:15:30.720Z,19.80
2017-06-25T12:17:58.985Z,19.80
2017-06-25T12:20:27.259Z,19.80
2017-06-25T12:22:55.554Z,19.90
2017-06-25T12:25:23.818Z,20.10
2017-06-25T12:27:52.101Z,20.10
2017-06-25T12:30:20.419Z,20.10
2017-06-25T12:32:48.692Z,20.20
2017-06-25T12:35:16.960Z,20.30
2017-06-25T12:37:45.265Z,20.30
2017-06-25T12:40:13.552Z,20.30
2017-06-25T12:42:41.853Z,20.30
2017-06-25T12:45:10.153Z,20.30
2017-06-25T12:47:38.419Z,20.30
2017-06-25T12:50:06.713Z,20.40
2017-06-25T12:52:35.014Z,20.50
2017-06-25T12:55:03.287Z,20.50
2017-06-25T12:57:31.608Z,20.40
2017-06-25T12:59:59.880Z,20.40
2017-06-25T13:02:28.185Z,20.40
2017-06-25T13:04:56.487Z,20.40
2017-06-25T13:07:24.789Z,20.30
2017-06-25T13:09:53.092Z,20.20
2017-06-25T13:12:21.357Z,20.10
2017-06-25T13:14:49.655Z,20.20
2017-06-25T13:17:17.947Z,20.00
2017-06-25T13:19:46.243Z,20.00
2017-06-25T13:22:14.513Z,20.00
2017-06-25T13:24:42.787Z,19.90
2017-06-25T13:27:11.084Z,19.80
2017-06-25T13:29:39.356Z,19.90
2017-06-25T13:32:07.669Z,19.90
2017-06-25T13:34:35.928Z,20.00
2017-06-25T13:37:04.194Z,20.10
2017-06-25T13:39:32.501Z,20.10
2017-06-25T13:42:00.768Z,20.00
2017-06-25T13:44:29.050Z,20.10
2017-06-25T13:46:57.336Z,20.20
2017-06-25T13:49:25.600Z,20.40
2017-06-25T13:51:53.903Z,20.40
2017-06-25T13:54:22.173Z,20.50
2017-06-25T13:56:50.436Z,20.60
2017-06-25T13:59:18.732Z,20.70
2017-06-25T14:01:47.006Z,20.60
2017-06-25T14:04:15.299Z,20.70
2017-06-25T14:06:43.575Z,20.70
2017-06-25T14:09:11.867Z,20.80
2017-06-25T14:11:40.139Z,20.60
2017-06-25T14:14:08.655Z,20.60
2017-06-25T14:16:36.947Z,20.80
2017-06-25T14:19:05.223Z,21.00
2017-06-25T14:21:33.540Z,21.10
2017-06-25T14:24:01.820Z,21.10
2017-06-25T14:26:30.113Z,21.20
2017-06-25T14:28:58.412Z,21.20
2017-06-25T14:31:26.733Z,21.20
2017-06-25T14:33:54.996Z,21.20
2017-06-25T14:36:23.412Z,21.30
2017-06-25T14:38:51.703Z,21.40
2017-06-25T14:41:19.984Z,21.30
2017-06-25T14:43:48.281Z,21.20
2017-06-25T14:46:16.543Z,21.20
2017-06-25T14:48:44.833Z,21.00
2017-06-25T14:51:13.114Z,20.90
2017-06-25T14:53:41.367Z,21.00
2017-06-25T14:56:09.691Z,21.20
2017-06-25T14:58:37.191Z,21.20
2017-06-25T15:01:05.449Z,21.70
2017-06-25T15:03:33.734Z,22.00
2017-06-25T15:06:01.237Z,22.00
2017-06-25T15:08:29.519Z,22.10
2017-06-25T15:10:57.779Z,21.90
2017-06-25T15:13:26.080Z,21.90
2017-06-25T15:15:54.327Z,22.00
2017-06-25T15:18:22.592Z,22.00
2017-06-25T15:20:50.879Z,22.20
2017-06-25T15:23:19.141Z,22.30
2017-06-25T15:25:47.468Z,22.40
2017-06-25T15:28:15.739Z,22.70
2017-06-25T15:30:44.028Z,22.80
2017-06-25T15:33:12.307Z,22.90
2017-06-25T15:35:39.852Z,22.90
2017-06-25T15:38:08.116Z,22.80
2017-06-25T15:40:36.368Z,22.60
2017-06-25T15:43:04.655Z,22.50
2017-06-25T15:45:32.934Z,22.40
2017-06-25T15:48:01.199Z,22.20
2017-06-25T15:50:29.483Z,22.20
2017-06-25T15:52:57.752Z,22.10
2017-06-25T15:55:26.040Z,22.00
2017-06-25T15:57:54.315Z,21.90
2017-06-25T16:00:22.644Z,21.90
2017-06-25T16:02:50.903Z,21.80
2017-06-25T16:05:19.160Z,21.80
2017-06-25T16:07:47.446Z,21.70
2017-06-25T16:10:15.714Z,21.80
2017-06-25T16:12:44.003Z,21.80
2017-06-25T16:15:12.265Z,21.80
2017-06-25T16:17:40.555Z,21.80
2017-06-25T16:20:08.820Z,21.80
2017-06-25T16:22:37.112Z,21.90
2017-06-25T16:25:05.391Z,21.90
2017-06-25T16:27:33.655Z,21.90
2017-06-25T16:30:01.212Z,21.90
2017-06-25T16:32:29.483Z,22.00
2017-06-25T16:34:57.740Z,21.90
2017-06-25T16:37:26.023Z,22.00
2017-06-25T16:39:56.240Z,22.00
2017-06-25T16:42:24.535Z,22.00
2017-06-25T16:44:52.825Z,21.90
2017-06-25T16:47:21.117Z,21.80
2017-06-25T16:49:49.367Z,21.90
2017-06-25T16:52:17.659Z,22.00
2017-06-25T16:54:45.163Z,22.00
2017-06-25T16:57:12.648Z,21.90
2017-06-25T16:59:40.928Z,21.90
2017-06-25T17:02:09.188Z,22.10
2017-06-25T17:04:36.713Z,22.00
2017-06-25T17:07:04.978Z,22.10
2017-06-25T17:09:33.285Z,22.10
2017-06-25T17:12:01.544Z,22.00
2017-06-25T17:14:29.824Z,22.00
2017-06-25T17:16:58.079Z,22.00
2017-06-25T17:19:26.372Z,22.00
2017-06-25T17:21:54.628Z,22.00
2017-06-25T17:24:22.150Z,22.00
2017-06-25T17:26:49.651Z,22.00
2017-06-25T17:29:17.933Z,21.90
2017-06-25T17:31:46.228Z,21.70
2017-06-25T17:34:14.511Z,21.70
2017-06-25T17:36:42.806Z,21.80
2017-06-25T17:39:11.067Z,21.80
2017-06-25T17:41:39.361Z,21.80
2017-06-25T17:44:07.631Z,21.70
2017-06-25T17:46:35.920Z,21.70
2017-06-25T17:49:03.440Z,21.70
2017-06-25T17:51:31.702Z,21.80
2017-06-25T17:53:59.988Z,21.70
2017-06-25T17:56:28.259Z,21.70
2017-06-25T17:58:56.555Z,21.70
2017-06-25T18:01:24.817Z,21.70
2017-06-25T18:03:52.340Z,21.70
2017-06-25T18:06:20.603Z,21.70
2017-06-25T18:08:48.895Z,21.70
2017-06-25T18:11:17.169Z,21.70
2017-06-25T18:13:45.450Z,21.70
2017-06-25T18:16:13.753Z,21.60
2017-06-25T18:18:42.019Z,21.70
2017-06-25T18:21:10.276Z,21.70
2017-06-25T18:23:38.555Z,21.60
2017-06-25T18:26:06.850Z,21.70
2017-06-25T18:28:35.103Z,21.60
2017-06-25T18:31:03.386Z,21.50
2017-06-25T18:33:31.646Z,21.50
2017-06-25T18:35:59.143Z,21.40
2017-06-25T18:38:27.437Z,21.40
2017-06-25T18:40:55.702Z,21.10
2017-06-25T18:43:24.009Z,21.10
2017-06-25T18:45:52.284Z,21.20
2017-06-25T18:48:20.562Z,21.10
2017-06-25T18:50:48.842Z,21.00
2017-06-25T18:53:17.131Z,21.10
2017-06-25T18:55:45.396Z,20.90
2017-06-25T18:58:13.671Z,20.90
2017-06-25T19:00:41.977Z,20.70
2017-06-25T19:03:10.239Z,20.80
2017-06-25T19:05:37.770Z,20.80
2017-06-25T19:08:06.091Z,20.90
2017-06-25T19:10:34.354Z,20.80
2017-06-25T19:13:02.620Z,20.80
2017-06-25T19:15:30.910Z,20.90
2017-06-25T19:17:59.180Z,20.80
2017-06-25T19:20:27.467Z,20.60
2017-06-25T19:22:55.735Z,20.70
2017-06-25T19:25:24.027Z,20.70
2017-06-25T19:27:52.303Z,20.70
2017-06-25T19:30:20.608Z,20.70
2017-06-25T19:32:48.901Z,20.70
2017-06-25T19:35:17.187Z,20.60
2017-06-25T19:37:45.447Z,20.70
2017-06-25T19:40:13.736Z,20.70
2017-06-25T19:42:42.943Z,20.70
2017-06-25T19:45:11.280Z,20.60
2017-06-25T19:47:39.547Z,20.60
2017-06-25T19:50:07.814Z,20.60
2017-06-25T19:52:36.133Z,20.70
2017-06-25T19:55:04.401Z,20.50
2017-06-25T19:57:32.666Z,20.50
2017-06-25T20:00:00.954Z,20.40
2017-06-25T20:02:29.216Z,20.40
2017-06-25T20:04:57.506Z,20.50
2017-06-25T20:07:25.763Z,20.40
2017-06-25T20:09:54.067Z,20.40
2017-06-25T20:12:22.335Z,20.50
2017-06-25T20:14:50.605Z,20.50
2017-06-25T20:17:18.893Z,20.30
2017-06-25T20:19:47.183Z,20.30
2017-06-25T20:22:15.504Z,20.30
2017-06-25T20:24:43.806Z,20.20
2017-06-25T20:27:12.089Z,20.20
2017-06-25T20:29:40.354Z,20.30
2017-06-25T20:32:08.637Z,20.20
2017-06-25T20:34:36.893Z,20.20
2017-06-25T20:37:05.189Z,20.20
2017-06-25T20:39:33.456Z,20.10
2017-06-25T20:42:01.736Z,20.10
2017-06-25T20:44:30.033Z,20.10
2017-06-25T20:46:58.295Z,20.10
2017-06-25T20:49:26.544Z,20.10
2017-06-25T20:51:54.838Z,20.10
2017-06-25T20:54:23.147Z,20.10
2017-06-25T20:56:51.404Z,20.10
2017-06-25T20:59:19.659Z,20.00
2017-06-25T21:01:47.969Z,19.80
2017-06-25T21:04:16.237Z,19.80
2017-06-25T21:06:44.495Z,19.80
2017-06-25T21:09:12.785Z,19.70
2017-06-25T21:11:41.075Z,19.60
2017-06-25T21:14:08.572Z,19.60
2017-06-25T21:16:36.870Z,19.50
2017-06-25T21:19:05.139Z,19.60
2017-06-25T21:21:33.444Z,19.50
2017-06-25T21:24:01.707Z,19.60
2017-06-25T21:26:29.232Z,19.50
2017-06-25T21:28:57.514Z,19.50
2017-06-25T21:31:25.771Z,19.40
2017-06-25T21:33:54.076Z,19.40
2017-06-25T21:36:22.363Z,19.40
2017-06-25T21:38:50.626Z,19.40
2017-06-25T21:41:18.919Z,19.30
2017-06-25T21:43:47.174Z,19.40
2017-06-25T21:46:15.456Z,19.30
2017-06-25T21:48:43.720Z,19.20
2017-06-25T21:51:12.003Z,19.20
2017-06-25T21:53:40.262Z,19.30
2017-06-25T21:56:08.559Z,19.20
2017-06-25T21:58:36.823Z,19.30
2017-06-25T22:01:05.076Z,19.20
2017-06-25T22:03:33.364Z,19.10
2017-06-25T22:06:01.630Z,19.10
2017-06-25T22:08:29.916Z,19.00
2017-06-25T22:10:58.173Z,19.00
2017-06-25T22:13:26.472Z,19.00
2017-06-25T22:15:54.740Z,19.00
2017-06-25T22:18:22.991Z,19.00
2017-06-25T22:20:51.263Z,18.90
2017-06-25T22:23:19.520Z,18.90
2017-06-25T22:25:47.792Z,18.80
2017-06-25T22:28:16.047Z,18.80
2017-06-25T22:30:43.557Z,18.80
2017-06-25T22:33:11.812Z,18.80
2017-06-25T22:35:39.329Z,18.80
2017-06-25T22:38:06.829Z,18.80
2017-06-25T22:40:35.112Z,18.70
2017-06-25T22:43:03.400Z,18.70
2017-06-25T22:45:31.680Z,18.70
2017-06-25T22:47:59.954Z,18.60
2017-06-25T22:50:28.205Z,18.60
2017-06-25T22:52:56.512Z,18.60
2017-06-25T22:55:24.772Z,18.60
2017-06-25T22:57:53.024Z,18.60
2017-06-25T23:00:21.321Z,18.60
2017-06-25T23:02:49.589Z,18.50
2017-06-25T23:05:17.847Z,18.50
2017-06-25T23:07:46.120Z,18.50
2017-06-25T23:10:14.415Z,18.50
2017-06-25T23:12:42.671Z,18.40
2017-06-25T23:15:10.925Z,18.50
2017-06-25T23:17:39.204Z,18.50
2017-06-25T23:20:07.463Z,18.40
2017-06-25T23:22:35.735Z,18.50
2017-06-25T23:25:03.989Z,18.40
2017-06-25T23:27:32.279Z,18.50
2017-06-25T23:30:02.524Z,18.40
2017-06-25T23:32:30.821Z,18.30
2017-06-25T23:34:59.084Z,18.30
2017-06-25T23:37:27.362Z,18.30
2017-06-25T23:39:56.575Z,18.20
2017-06-25T23:42:24.827Z,18.10
2017-06-25T23:44:53.107Z,18.20
2017-06-25T23:47:21.359Z,18.10
2017-06-25T23:49:49.610Z,18.10
2017-06-25T23:52:17.893Z,18.10
2017-06-25T23:54:46.172Z,18.10
2017-06-25T23:57:14.424Z,18.10
2017-06-25T23:59:42.707Z,18.20
